Time;durP1;ratioP1;P1;durP2;ratioP2;P2;SDS_P1;SDS_P2;PMS_P1;PMS_P2;Temp;Humidity;BMP_temperature;BMP_pressure;BME280_temperature;BME280_humidity;BME280_pressure;Samples;Min_cycle;Max_cycle;Signal;HPM_P1;HPM_P2
2023/01/19 00:01:23;;;;;;;7.15;1.90;;;2.10;99.90;;;0.91;100.00;100661.16;4152193;28;20026;-76
2023/01/19 00:03:24;;;;;;;7.18;2.15;;;2.10;99.90;;;0.95;100.00;100670.44;4151379;28;20026;-76
2023/01/19 00:05:25;;;;;;;7.82;2.30;;;2.10;99.90;;;0.95;100.00;100677.41;4152560;28;20058;-76
2023/01/19 00:07:26;;;;;;;8.85;3.97;;;2.10;99.90;;;0.90;100.00;100667.28;4162009;28;20519;-76
2023/01/19 00:09:32;;;;;;;10.32;2.85;;;2.10;99.90;;;0.87;100.00;100664.88;4153502;28;20575;-76
2023/01/19 00:11:33;;;;;;;7.80;2.63;;;2.10;99.90;;;0.88;100.00;100676.94;4151169;28;20052;-76
2023/01/19 00:13:33;;;;;;;6.10;2.30;;;2.00;99.90;;;0.79;100.00;100669.72;4152333;28;20026;-76
2023/01/19 00:15:35;;;;;;;8.07;2.42;;;2.00;99.90;;;0.77;100.00;100676.78;4151111;28;20065;-77
2023/01/19 00:17:36;;;;;;;7.28;2.53;;;1.90;99.90;;;0.73;100.00;100674.47;4160828;28;20070;-76
2023/01/19 00:19:36;;;;;;;7.03;3.55;;;1.80;99.90;;;0.65;100.00;100667.16;4152494;28;20030;-76
2023/01/19 00:21:37;;;;;;;9.82;2.83;;;1.80;99.90;;;0.64;100.00;100677.63;4150868;28;20038;-76
2023/01/19 00:23:38;;;;;;;8.48;3.28;;;1.70;99.90;;;0.75;100.00;100683.81;4150883;28;20037;-76
2023/01/19 00:25:42;;;;;;;12.63;3.63;;;1.80;99.90;;;0.87;100.00;100679.63;4151819;28;20524;-76
2023/01/19 00:27:48;;;;;;;7.15;2.17;;;1.90;99.90;;;0.89;100.00;100683.81;4158818;28;20048;-76
2023/01/19 00:29:49;;;;;;;10.23;2.17;;;2.00;99.90;;;0.94;100.00;100676.56;4152387;28;20108;-76
2023/01/19 00:31:50;;;;;;;8.43;2.13;;;2.00;99.90;;;1.11;100.00;100673.72;4150971;28;20485;-76
2023/01/19 00:33:51;;;;;;;8.85;1.90;;;2.10;99.90;;;1.11;100.00;100663.31;4152012;28;20034;-76
2023/01/19 00:35:55;;;;;;;6.05;2.03;;;2.20;99.90;;;1.13;100.00;100665.84;4151080;28;20072;-76
2023/01/19 00:37:58;;;;;;;7.47;2.40;;;2.20;99.90;;;1.07;100.00;100666.22;4155744;28;20085;-76
2023/01/19 00:39:58;;;;;;;7.88;2.42;;;2.20;99.90;;;1.06;100.00;100662.81;4151003;28;20033;-76
2023/01/19 00:44:19;;;;;;;6.03;2.05;;;2.20;99.90;;;1.25;100.00;100672.00;4151284;28;20033;-76
2023/01/19 00:46:25;;;;;;;2.55;1.40;;;2.30;99.90;;;1.35;100.00;100683.47;4152276;28;20026;-76
2023/01/19 00:48:26;;;;;;;4.60;1.48;;;2.40;99.90;;;1.28;100.00;100672.66;4152338;28;20521;-76
2023/01/19 00:50:29;;;;;;;8.60;1.77;;;2.40;99.90;;;1.32;100.00;100674.09;4150911;28;20038;-76
2023/01/19 00:52:31;;;;;;;5.22;1.70;;;2.40;99.90;;;1.22;100.00;100667.03;4150669;28;20026;-76
2023/01/19 00:54:32;;;;;;;7.10;1.88;;;2.40;99.90;;;1.27;100.00;100676.19;4150814;28;20032;-76
2023/01/19 00:56:34;;;;;;;9.65;2.33;;;2.40;99.90;;;1.17;100.00;100674.25;4156445;28;20033;-76
2023/01/19 00:58:35;;;;;;;5.13;1.90;;;2.30;99.90;;;1.16;100.00;100677.78;4150800;28;20038;-76
2023/01/19 01:00:35;;;;;;;6.88;1.73;;;2.30;99.90;;;1.27;100.00;100675.34;4150789;28;20018;-76
2023/01/19 01:02:38;;;;;;;6.30;1.85;;;2.30;99.90;;;1.25;100.00;100677.22;4150629;28;20112;-76
2023/01/19 01:04:39;;;;;;;7.78;1.70;;;2.30;99.90;;;1.17;100.00;100669.06;4150628;28;20090;-76
2023/01/19 01:06:40;;;;;;;5.63;1.83;;;2.30;99.90;;;1.23;100.00;100681.66;4153932;28;20030;-76
2023/01/19 01:08:41;;;;;;;4.32;1.75;;;2.30;99.90;;;1.27;100.00;100678.78;4151728;28;20159;-76
2023/01/19 01:10:42;;;;;;;7.90;1.98;;;2.40;99.90;;;1.35;100.00;100680.88;4151858;28;20033;-76
2023/01/19 01:12:43;;;;;;;9.18;2.15;;;2.40;99.90;;;1.36;100.00;100677.34;4152206;28;20371;-76
2023/01/19 01:14:44;;;;;;;7.90;1.50;;;2.40;99.90;;;1.40;100.00;100660.63;4152019;28;20030;-76
2023/01/19 01:16:45;;;;;;;4.95;1.83;;;2.50;99.90;;;1.55;100.00;100667.44;4152645;28;20110;-76
2023/01/19 01:18:46;;;;;;;4.72;1.67;;;2.50;99.90;;;1.53;100.00;100688.31;4151787;28;20120;-76
2023/01/19 01:20:47;;;;;;;7.10;1.70;;;2.60;99.90;;;1.43;100.00;100679.47;4150233;28;20391;-76
2023/01/19 01:22:51;;;;;;;6.57;1.33;;;2.50;99.90;;;1.35;100.00;100683.47;4152898;28;20030;-76
2023/01/19 01:24:52;;;;;;;6.00;1.50;;;2.50;99.90;;;1.32;100.00;100681.06;4155701;28;20022;-76
2023/01/19 01:26:53;;;;;;;5.55;1.35;;;2.40;99.90;;;1.34;100.00;100684.41;4146681;28;20065;-76
2023/01/19 01:28:54;;;;;;;4.72;1.33;;;2.50;99.90;;;1.26;100.00;100686.66;4159296;28;20098;-76
2023/01/19 01:30:55;;;;;;;2.63;1.70;;;2.40;99.90;;;1.25;100.00;100687.59;4153492;28;20038;-76
2023/01/19 01:32:56;;;;;;;6.05;1.33;;;2.40;99.90;;;1.23;100.00;100685.09;4153412;28;20018;-76
2023/01/19 01:34:57;;;;;;;9.05;2.13;;;2.40;99.90;;;1.36;100.00;100682.53;4154472;28;20030;-76
2023/01/19 01:36:58;;;;;;;3.67;2.25;;;2.40;99.90;;;1.27;100.00;100673.59;4163746;28;20033;-76
2023/01/19 01:38:59;;;;;;;5.90;1.20;;;2.40;99.90;;;1.23;100.00;100666.91;4154322;28;20030;-76
2023/01/19 01:41:00;;;;;;;7.05;2.67;;;2.40;99.90;;;1.22;100.00;100683.44;4153605;28;20029;-76
2023/01/19 01:43:01;;;;;;;4.93;1.80;;;2.40;99.90;;;1.25;100.00;100666.81;4154379;28;20033;-76
2023/01/19 01:45:14;;;;;;;6.30;1.40;;;2.30;99.90;;;1.26;100.00;100677.09;4154214;28;20026;-76
2023/01/19 01:47:36;;;;;;;5.15;1.30;;;2.40;99.90;;;1.22;100.00;100675.66;4160345;28;20513;-76
2023/01/19 01:49:37;;;;;;;5.65;1.58;;;2.30;99.90;;;1.20;100.00;100676.66;4153156;28;20033;-76
2023/01/19 01:51:45;;;;;;;10.88;2.08;;;2.30;99.90;;;1.21;100.00;100670.53;4154167;28;20482;-76
2023/01/19 01:54:01;;;;;;;4.28;1.30;;;2.30;99.90;;;1.25;100.00;100679.81;4152481;28;20486;-76
2023/01/19 01:56:08;;;;;;;5.72;1.45;;;2.30;99.90;;;1.38;100.00;100688.47;4138131;28;20030;-76
2023/01/19 01:58:10;;;;;;;3.55;1.40;;;2.40;99.90;;;1.43;100.00;100682.06;4152786;28;20068;-76
2023/01/19 02:00:12;;;;;;;6.50;2.13;;;2.50;99.90;;;1.44;100.00;100683.72;4136658;28;20030;-76
2023/01/19 02:04:50;;;;;;;4.90;1.25;;;2.50;99.90;;;1.31;100.00;100677.66;4152977;28;20540;-76
2023/01/19 02:13:52;;;;;;;3.72;1.23;;;2.40;99.90;;;1.20;100.00;100684.44;4139542;28;20109;-76
2023/01/19 02:16:00;;;;;;;5.63;2.03;;;2.30;99.90;;;1.19;100.00;100677.59;4152816;28;20030;-76
2023/01/19 02:18:01;;;;;;;7.22;2.00;;;2.30;99.90;;;1.19;100.00;100681.03;4152883;28;20089;-76
2023/01/19 02:20:02;;;;;;;8.40;2.55;;;2.30;99.90;;;1.20;100.00;100674.88;4152669;28;20022;-76
2023/01/19 02:22:29;;;;;;;6.50;1.70;;;2.30;99.90;;;1.21;100.00;100679.16;4152505;28;20048;-76
2023/01/19 02:24:30;;;;;;;14.27;1.55;;;2.30;99.90;;;1.21;100.00;100696.50;4159220;28;20107;-76
2023/01/19 02:26:39;;;;;;;3.17;1.50;;;2.30;99.90;;;1.29;100.00;100689.91;4166554;28;20208;-76
2023/01/19 02:28:47;;;;;;;7.22;2.38;;;2.40;99.90;;;1.28;100.00;100705.59;4156453;28;20026;-76
2023/01/19 02:30:48;;;;;;;5.72;1.30;;;2.40;99.90;;;1.24;100.00;100699.75;4152735;28;20026;-76
2023/01/19 02:32:49;;;;;;;6.78;1.60;;;2.40;99.90;;;1.24;100.00;100693.72;4152384;28;20101;-76
2023/01/19 02:34:51;;;;;;;5.75;1.60;;;2.40;99.90;;;1.24;100.00;100693.72;4152297;28;20089;-76
2023/01/19 02:37:07;;;;;;;3.40;1.40;;;2.30;99.90;;;1.27;100.00;100686.56;4160703;28;20033;-76
2023/01/19 02:39:10;;;;;;;7.03;1.55;;;2.40;99.90;;;1.29;100.00;100683.84;4141460;28;20030;-76
2023/01/19 02:41:16;;;;;;;10.15;1.90;;;2.40;99.90;;;1.32;100.00;100684.50;4152358;28;20101;-76
2023/01/19 02:43:19;;;;;;;6.55;1.73;;;2.50;99.90;;;1.41;100.00;100683.91;4136222;28;20038;-76
2023/01/19 02:45:21;;;;;;;6.22;1.83;;;2.50;99.90;;;1.45;100.00;100687.16;4152119;28;20014;-76
2023/01/19 02:47:23;;;;;;;7.57;1.52;;;2.60;99.90;;;1.47;100.00;100693.06;4141761;28;20038;-76
2023/01/19 02:49:28;;;;;;;5.20;1.67;;;2.60;99.90;;;1.51;100.00;100685.00;4152285;28;20455;-76
2023/01/19 02:51:29;;;;;;;3.42;1.13;;;2.60;99.90;;;1.53;100.00;100692.66;4152070;28;20068;-76
2023/01/19 02:53:58;;;;;;;4.07;1.35;;;2.60;99.90;;;1.52;100.00;100686.63;4152025;28;20080;-76
2023/01/19 02:56:37;;;;;;;5.93;2.25;;;2.60;99.90;;;1.54;100.00;100690.00;4154168;28;20030;-76
2023/01/19 02:58:55;;;;;;;6.03;2.28;;;2.70;99.90;;;1.65;100.00;100686.66;4125441;28;20046;-76
2023/01/19 03:01:18;;;;;;;6.20;2.20;;;2.70;99.90;;;1.61;100.00;100687.81;4153160;28;20033;-76
2023/01/19 03:04:04;;;;;;;5.57;2.15;;;2.70;99.90;;;1.58;100.00;100680.22;4152299;28;20034;-76
2023/01/19 03:06:11;;;;;;;5.50;2.00;;;2.70;99.90;;;1.64;100.00;100688.44;4154613;28;20441;-75
2023/01/19 03:08:51;;;;;;;8.90;2.22;;;2.70;99.90;;;1.60;100.00;100673.16;4138803;28;20034;-76
2023/01/19 03:11:07;;;;;;;6.97;2.00;;;2.70;99.90;;;1.60;100.00;100676.59;4151946;28;20112;-76
2023/01/19 03:13:14;;;;;;;7.45;2.40;;;2.70;99.90;;;1.55;100.00;100675.22;4152079;28;20026;-76
2023/01/19 03:15:29;;;;;;;4.07;1.98;;;2.70;99.90;;;1.47;100.00;100667.06;4153075;28;20532;-76
2023/01/19 03:17:31;;;;;;;10.38;1.60;;;2.60;99.90;;;1.44;100.00;100680.28;4164013;28;20033;-76
2023/01/19 03:19:38;;;;;;;9.43;2.50;;;2.60;99.90;;;1.41;100.00;100683.06;4151800;28;20026;-76
2023/01/19 03:21:43;;;;;;;8.18;1.80;;;2.60;99.90;;;1.43;100.00;100676.03;4151540;28;20053;-76
2023/01/19 03:23:45;;;;;;;6.40;2.13;;;2.60;99.90;;;1.46;100.00;100679.25;4135294;28;20029;-76
2023/01/19 03:25:48;;;;;;;8.77;3.15;;;2.60;99.90;;;1.42;100.00;100682.16;4152417;28;20120;-76
2023/01/19 03:27:52;;;;;;;4.22;2.00;;;2.60;99.90;;;1.41;100.00;100670.06;4162158;28;20021;-76
2023/01/19 03:29:59;;;;;;;;;;;2.60;99.90;;;1.41;100.00;100677.88;4151924;28;20061;-76
2023/01/19 03:32:05;;;;;;;4.82;1.70;;;2.60;99.90;;;1.40;100.00;100673.63;4151664;28;20420;-76
2023/01/19 03:34:11;;;;;;;8.45;1.83;;;2.50;99.90;;;1.42;100.00;100679.53;4151862;28;20038;-76
2023/01/19 03:36:30;;;;;;;6.25;2.05;;;2.50;99.90;;;1.41;100.00;100675.28;4135243;28;20486;-76
2023/01/19 03:38:36;;;;;;;4.25;1.90;;;2.50;99.90;;;1.38;100.00;100672.88;4153984;28;20037;-76
2023/01/19 03:40:38;;;;;;;6.07;1.63;;;2.50;99.90;;;1.38;100.00;100671.13;4138334;28;20034;-76
2023/01/19 03:42:41;;;;;;;7.22;1.88;;;2.50;99.90;;;1.40;100.00;100671.03;4135091;28;20022;-76
2023/01/19 03:44:44;;;;;;;3.50;1.77;;;2.50;99.90;;;1.49;100.00;100670.44;4150926;28;20061;-76
2023/01/19 03:46:47;;;;;;;5.85;1.50;;;2.60;99.90;;;1.47;100.00;100661.88;4157171;28;20021;-76
2023/01/19 03:48:49;;;;;;;4.22;1.10;;;2.60;99.90;;;1.49;100.00;100660.03;4151593;28;20022;-76
2023/01/19 03:50:51;;;;;;;3.10;1.23;;;2.60;99.90;;;1.51;100.00;100658.16;4151442;28;20030;-76
2023/01/19 03:53:10;;;;;;;6.53;2.22;;;2.60;99.90;;;1.54;100.00;100663.16;4151783;28;20018;-76
2023/01/19 03:55:11;;;;;;;4.97;1.65;;;2.60;99.90;;;1.52;100.00;100659.84;4150814;28;20037;-76
2023/01/19 03:57:12;;;;;;;6.63;1.33;;;2.60;99.90;;;1.52;100.00;100660.63;4152287;28;20026;-77
2023/01/19 03:59:16;;;;;;;4.88;1.60;;;2.60;99.90;;;1.46;100.00;100662.84;4152309;28;20501;-76
2023/01/19 04:01:22;;;;;;;4.68;1.92;;;2.60;99.90;;;1.40;100.00;100666.66;4152413;28;20062;-76
2023/01/19 04:03:22;;;;;;;10.30;1.42;;;2.50;99.90;;;1.38;100.00;100670.28;4151335;28;20030;-76
2023/01/19 04:05:24;;;;;;;4.63;1.30;;;2.50;99.90;;;1.23;100.00;100660.88;4151206;28;20080;-76
2023/01/19 04:07:24;;;;;;;4.45;1.65;;;2.40;99.90;;;1.14;100.00;100657.09;4136578;28;20088;-77
2023/01/19 04:09:26;;;;;;;4.10;1.50;;;2.30;99.90;;;1.06;100.00;100652.41;4152275;28;20038;-76
2023/01/19 04:11:27;;;;;;;2.60;1.33;;;2.20;99.90;;;0.95;100.00;100647.06;4152331;28;20033;-76
2023/01/19 04:13:28;;;;;;;4.95;1.23;;;2.20;99.90;;;0.91;100.00;100653.38;4151180;28;20017;-76
2023/01/19 04:15:31;;;;;;;2.22;1.25;;;2.10;99.90;;;0.84;100.00;100652.09;4151017;28;20033;-76
2023/01/19 04:17:32;;;;;;;5.65;1.70;;;2.00;99.90;;;0.77;100.00;100648.22;4163671;28;20025;-76
2023/01/19 04:19:32;;;;;;;5.75;1.98;;;2.00;99.90;;;0.76;100.00;100648.31;4152332;28;20041;-76
2023/01/19 04:21:34;;;;;;;3.67;1.80;;;1.90;99.90;;;0.72;100.00;100660.66;4150884;28;20046;-77
2023/01/19 04:23:34;;;;;;;3.72;1.67;;;1.90;99.90;;;0.69;100.00;100655.63;4152045;28;20032;-76
2023/01/19 04:25:35;;;;;;;3.78;1.48;;;1.90;99.90;;;0.66;100.00;100663.63;4151823;28;20533;-76
2023/01/19 04:27:36;;;;;;;4.32;1.30;;;1.80;99.90;;;0.63;100.00;100661.22;4161750;28;20040;-76
2023/01/19 04:29:37;;;;;;;4.07;1.33;;;1.80;99.90;;;0.55;100.00;100655.66;4152245;28;20026;-76
2023/01/19 04:31:38;;;;;;;3.38;1.73;;;1.80;99.90;;;0.58;100.00;100660.66;4151009;28;20041;-76
2023/01/19 04:33:39;;;;;;;2.42;1.30;;;1.70;99.90;;;0.52;100.00;100658.47;4152231;28;20501;-76
2023/01/19 04:35:41;;;;;;;2.58;1.27;;;1.70;99.90;;;0.52;100.00;100661.06;4152191;28;20114;-77
2023/01/19 04:37:43;;;;;;;2.65;1.30;;;1.70;99.90;;;0.51;100.00;100656.78;4158976;28;20026;-76
2023/01/19 04:39:44;;;;;;;2.13;1.48;;;1.70;99.90;;;0.49;100.00;100658.66;4152310;28;20045;-76
2023/01/19 04:41:45;;;;;;;3.10;1.50;;;1.60;99.90;;;0.48;100.00;100659.56;4152093;28;20025;-77
2023/01/19 04:43:46;;;;;;;2.22;1.50;;;1.60;99.90;;;0.45;100.00;100667.53;4152013;28;20064;-76
2023/01/19 04:45:48;;;;;;;4.85;1.23;;;1.60;99.90;;;0.43;100.00;100656.41;4152270;28;20025;-76
2023/01/19 04:47:50;;;;;;;3.53;1.40;;;1.60;99.90;;;0.42;100.00;100654.75;4155281;28;20108;-76
2023/01/19 04:49:51;;;;;;;3.13;1.65;;;1.60;99.90;;;0.40;100.00;100651.41;4150950;28;20022;-76
2023/01/19 04:51:52;;;;;;;3.92;1.65;;;1.60;99.90;;;0.41;100.00;100653.94;4152137;28;20482;-76
2023/01/19 04:53:54;;;;;;;6.20;1.77;;;1.60;99.90;;;0.41;100.00;100647.91;4152107;28;20496;-76
2023/01/19 04:55:55;;;;;;;3.25;2.20;;;1.60;99.90;;;0.41;100.00;100646.16;4150936;28;20030;-76
2023/01/19 04:57:56;;;;;;;6.65;2.35;;;1.60;99.90;;;0.43;100.00;100651.22;4155897;28;20434;-76
2023/01/19 04:59:58;;;;;;;2.80;2.00;;;1.60;99.90;;;0.46;100.00;100646.69;4153848;28;20077;-76
2023/01/19 05:01:59;;;;;;;4.35;2.20;;;1.70;99.90;;;0.49;100.00;100650.84;4153605;28;20022;-76
2023/01/19 05:04:02;;;;;;;3.72;2.08;;;1.60;99.90;;;0.52;100.00;100646.31;4153837;28;20109;-76
2023/01/19 05:06:03;;;;;;;3.70;2.55;;;1.70;99.90;;;0.51;100.00;100638.63;4153832;28;20433;-76
2023/01/19 05:08:04;;;;;;;5.45;3.17;;;1.70;99.90;;;0.62;100.00;100640.56;4167626;28;20437;-76
2023/01/19 05:10:06;;;;;;;7.28;2.75;;;1.70;99.90;;;0.65;100.00;100637.78;4155071;28;20038;-76
2023/01/19 05:12:08;;;;;;;5.97;3.30;;;1.80;99.90;;;0.66;100.00;100632.47;4154895;28;20062;-76
2023/01/19 05:14:09;;;;;;;9.23;5.03;;;1.80;99.90;;;0.67;100.00;100628.97;4153708;28;20579;-76
2023/01/19 05:16:10;;;;;;;6.43;3.85;;;1.80;99.90;;;0.73;100.00;100641.56;4153696;28;20026;-76
2023/01/19 05:18:11;;;;;;;8.02;3.83;;;1.80;99.90;;;0.75;100.00;100647.47;4165310;28;20048;-76
2023/01/19 05:20:13;;;;;;;6.72;4.03;;;1.90;99.90;;;0.71;100.00;100630.44;4153436;28;20058;-76
2023/01/19 05:22:15;;;;;;;6.18;3.05;;;1.90;99.90;;;0.73;100.00;100630.34;4137062;28;20049;-76
2023/01/19 05:24:17;;;;;;;6.70;2.92;;;1.90;99.90;;;0.72;100.00;100631.28;4153952;28;20022;-76
2023/01/19 05:26:18;;;;;;;5.43;2.72;;;1.90;99.90;;;0.75;100.00;100637.09;4154704;28;20084;-76
2023/01/19 05:28:20;;;;;;;5.00;2.67;;;1.90;99.90;;;0.72;100.00;100632.09;4162318;28;20486;-76
2023/01/19 05:30:20;;;;;;;7.40;3.00;;;1.90;99.90;;;0.71;100.00;100630.44;4154644;28;20034;-76
2023/01/19 05:32:21;;;;;;;3.72;1.88;;;1.90;99.90;;;0.72;100.00;100626.09;4153280;28;20030;-76
2023/01/19 05:34:22;;;;;;;7.03;2.55;;;1.80;99.90;;;0.67;100.00;100612.53;4156778;28;20456;-76
2023/01/19 05:36:23;;;;;;;5.13;1.92;;;1.80;99.90;;;0.73;100.00;100623.38;4154980;28;20026;-76
2023/01/19 05:38:24;;;;;;;4.53;1.75;;;1.90;99.90;;;0.71;100.00;100611.44;4158742;28;20038;-76
2023/01/19 05:40:25;;;;;;;4.88;1.60;;;1.90;99.90;;;0.73;100.00;100599.19;4153163;28;20022;-76
2023/01/19 05:42:26;;;;;;;3.72;1.80;;;1.90;99.90;;;0.74;100.00;100608.66;4153352;28;20121;-76
2023/01/19 05:44:27;;;;;;;3.30;1.77;;;1.90;99.90;;;0.74;100.00;100609.47;4154002;28;20034;-76
2023/01/19 05:46:28;;;;;;;2.90;1.90;;;1.90;99.90;;;0.76;100.00;100620.59;4142663;28;20037;-76
2023/01/19 05:48:28;;;;;;;6.20;2.58;;;1.90;99.90;;;0.69;100.00;100610.72;4156024;28;20057;-76
2023/01/19 05:50:30;;;;;;;3.80;2.30;;;1.90;99.90;;;0.66;100.00;100613.50;4153195;28;20088;-76
2023/01/19 05:52:31;;;;;;;6.72;2.40;;;1.80;99.90;;;0.55;100.00;100607.19;4154068;28;20026;-75
2023/01/19 05:54:32;;;;;;;5.32;2.25;;;1.70;99.90;;;0.54;100.00;100608.13;4153078;28;20420;-76
2023/01/19 05:56:34;;;;;;;5.80;2.38;;;1.70;99.90;;;0.50;100.00;100605.81;4154769;28;20064;-76
2023/01/19 05:58:38;;;;;;;4.80;2.30;;;1.70;99.90;;;0.51;100.00;100602.28;4153217;28;20478;-76
2023/01/19 06:00:39;;;;;;;3.60;2.33;;;1.70;99.90;;;0.57;100.00;100599.31;4153021;28;20026;-76
2023/01/19 06:02:40;;;;;;;3.30;2.20;;;1.70;99.90;;;0.60;100.00;100596.53;4154188;28;20037;-76
2023/01/19 06:04:40;;;;;;;3.72;2.10;;;1.70;99.90;;;0.61;100.00;100595.59;4152632;28;20022;-76
2023/01/19 06:06:41;;;;;;;6.28;2.65;;;1.70;99.90;;;0.67;100.00;100589.19;4157917;28;20017;-76
2023/01/19 06:08:43;;;;;;;8.32;3.20;;;1.80;99.90;;;0.75;100.00;100592.97;4161131;28;20026;-76
2023/01/19 06:10:44;;;;;;;7.85;3.30;;;1.80;99.90;;;0.78;100.00;100591.91;4154023;28;20486;-76
2023/01/19 06:12:45;;;;;;;5.22;3.28;;;1.90;99.90;;;0.78;100.00;100590.16;4153844;28;20025;-76
2023/01/19 06:14:46;;;;;;;6.35;3.47;;;1.90;99.90;;;0.76;100.00;100579.06;4153918;28;20405;-76
2023/01/19 06:16:46;;;;;;;5.32;3.67;;;1.90;99.90;;;0.80;100.00;100588.31;4157046;28;20014;-76
2023/01/19 06:18:47;;;;;;;8.82;5.10;;;1.90;99.90;;;0.77;100.00;100572.09;4159351;28;20033;-76
2023/01/19 06:20:48;;;;;;;13.18;5.68;;;1.90;99.90;;;0.77;100.00;100575.53;4152366;28;20037;-76
2023/01/19 06:22:49;;;;;;;9.05;4.30;;;1.90;99.90;;;0.79;100.00;100573.66;4153557;28;20030;-76
2023/01/19 06:24:50;;;;;;;6.80;4.32;;;1.90;99.90;;;0.75;100.00;100569.59;4160165;28;20031;-76
2023/01/19 06:26:51;;;;;;;13.40;6.78;;;1.90;99.90;;;0.77;100.00;100562.56;4163804;28;20108;-76
2023/01/19 06:28:52;;;;;;;9.57;4.45;;;1.90;99.90;;;0.78;100.00;100564.22;4155927;28;20018;-76
2023/01/19 06:30:55;;;;;;;5.63;3.67;;;1.90;99.90;;;0.74;100.00;100552.38;4153711;28;20080;-76
2023/01/19 06:32:56;;;;;;;8.13;3.28;;;1.90;99.90;;;0.78;100.00;100559.00;4152484;28;20026;-76
2023/01/19 06:34:56;;;;;;;6.63;3.10;;;1.90;99.90;;;0.75;100.00;100548.81;4152391;28;20045;-76
2023/01/19 06:36:58;;;;;;;8.40;2.90;;;2.00;99.90;;;0.81;100.00;100552.78;4156891;28;20436;-76
2023/01/19 06:39:02;;;;;;;6.45;2.70;;;2.00;99.90;;;0.76;100.00;100547.91;4153623;28;20113;-76
2023/01/19 06:41:03;;;;;;;5.40;3.22;;;2.00;99.90;;;0.77;100.00;100535.75;4160361;28;20389;-76
2023/01/19 06:43:04;;;;;;;7.03;2.80;;;1.90;99.90;;;0.75;100.00;100535.84;4158217;28;20030;-77
2023/01/19 06:45:08;;;;;;;8.18;3.35;;;2.00;99.90;;;0.82;100.00;100541.47;4152245;28;20191;-76
2023/01/19 06:47:08;;;;;;;6.47;2.85;;;1.90;99.90;;;0.82;100.00;100541.47;4156070;28;20032;-77
2023/01/19 06:49:09;;;;;;;4.57;2.97;;;2.00;99.90;;;0.83;100.00;100546.59;4153380;28;20022;-77
2023/01/19 06:51:10;;;;;;;6.45;2.70;;;2.00;99.90;;;0.84;100.00;100543.03;4153320;28;20034;-77
2023/01/19 06:53:11;;;;;;;6.10;2.90;;;2.00;99.90;;;0.82;100.00;100533.69;4152985;28;20030;-77
2023/01/19 06:55:13;;;;;;;9.45;3.03;;;2.00;99.90;;;0.89;100.00;100529.78;4135681;28;20034;-76
2023/01/19 06:57:14;;;;;;;4.93;2.38;;;2.00;99.90;;;0.89;100.00;100535.81;4157469;28;20088;-77
2023/01/19 06:59:15;;;;;;;5.15;3.17;;;2.00;99.90;;;0.92;100.00;100527.81;4147479;28;20022;-77
2023/01/19 07:01:16;;;;;;;16.95;7.65;;;2.00;99.90;;;0.92;100.00;100537.38;4153014;28;20022;-77
2023/01/19 07:03:21;;;;;;;15.15;8.30;;;2.00;99.90;;;0.95;100.00;100539.75;4151927;28;20055;-77
2023/01/19 07:05:21;;;;;;;;;;;2.10;99.90;;;0.85;100.00;100528.31;4152419;28;20029;-77
2023/01/19 07:07:22;;;;;;;18.80;9.43;;;2.10;99.90;;;1.00;100.00;100542.88;4154995;28;19916;-77
2023/01/19 07:09:24;;;;;;;22.58;9.65;;;2.10;99.90;;;0.98;100.00;100540.41;4151779;28;20062;-76
2023/01/19 07:11:25;;;;;;;20.10;8.75;;;2.10;99.90;;;0.97;100.00;100541.31;4151959;28;20049;-77
2023/01/19 07:13:26;;;;;;;18.35;7.47;;;2.10;99.90;;;1.05;100.00;100552.03;4152035;28;20029;-77
2023/01/19 07:15:27;;;;;;;13.35;6.57;;;2.20;99.90;;;1.07;100.00;100547.59;4151706;28;20489;-76
2023/01/19 07:17:27;;;;;;;11.15;6.50;;;2.20;99.90;;;1.11;100.00;100540.41;4168881;28;20065;-77
2023/01/19 07:19:28;;;;;;;10.30;5.45;;;2.20;99.90;;;1.12;100.00;100544.69;4150565;28;20033;-77
2023/01/19 07:21:29;;;;;;;8.98;4.93;;;2.20;99.90;;;1.11;100.00;100543.84;4158398;28;20387;-78
2023/01/19 07:23:30;;;;;;;10.52;4.78;;;2.20;99.90;;;1.09;100.00;100548.31;4151969;28;20033;-79
2023/01/19 07:25:31;;;;;;;8.85;4.30;;;2.20;99.90;;;1.11;100.00;100549.03;4164762;28;20104;-77
2023/01/19 07:27:32;;;;;;;8.52;4.18;;;2.30;99.90;;;1.10;100.00;100541.38;4162072;28;20026;-76
2023/01/19 07:29:33;;;;;;;8.32;3.83;;;2.30;99.90;;;1.09;100.00;100543.13;4151163;28;20034;-78
2023/01/19 07:31:34;;;;;;;7.95;3.88;;;2.30;99.90;;;1.07;100.00;100539.81;4151544;28;20476;-78
2023/01/19 07:33:35;;;;;;;6.13;2.95;;;2.20;99.90;;;1.06;100.00;100538.13;4152779;28;20468;-78
2023/01/19 07:35:36;;;;;;;5.03;2.78;;;2.20;99.90;;;1.09;100.00;100544.88;4151069;28;20533;-78
2023/01/19 07:37:37;;;;;;;5.70;3.08;;;2.20;99.90;;;1.02;100.00;100534.06;4159843;28;20045;-76
2023/01/19 07:39:38;;;;;;;6.38;3.42;;;2.20;99.90;;;0.98;100.00;100542.16;4134438;28;20494;-78
2023/01/19 07:41:39;;;;;;;5.93;2.92;;;2.20;99.90;;;0.92;100.00;100535.59;4152260;28;20029;-78
2023/01/19 07:43:40;;;;;;;5.78;3.28;;;2.10;99.90;;;0.94;100.00;100538.94;4134191;28;20057;-77
2023/01/19 07:45:41;;;;;;;7.95;3.40;;;2.10;99.90;;;0.77;100.00;100513.22;4152114;28;20134;-78
2023/01/19 07:47:47;;;;;;;8.10;3.60;;;2.10;99.90;;;0.92;100.00;100527.81;4158667;28;20080;-78
2023/01/19 07:49:48;;;;;;;5.65;4.00;;;2.10;99.90;;;0.91;100.00;100526.16;4134393;28;20037;-77
2023/01/19 07:51:49;;;;;;;9.20;4.10;;;2.10;99.90;;;0.90;100.00;100529.66;4151730;28;20493;-78
2023/01/19 07:53:50;;;;;;;8.07;3.50;;;2.00;99.90;;;0.89;100.00;100538.41;4150727;28;20030;-76
2023/01/19 07:55:56;;;;;;;5.43;3.47;;;2.00;99.90;;;0.89;100.00;100524.59;4152366;28;20057;-78
2023/01/19 07:57:56;;;;;;;5.95;3.65;;;2.00;99.90;;;0.91;100.00;100528.75;4137839;28;20093;-78
2023/01/19 07:59:57;;;;;;;5.68;3.55;;;2.00;99.90;;;0.96;100.00;100531.84;4150714;28;20034;-78
2023/01/19 08:01:58;;;;;;;8.30;3.78;;;2.10;99.90;;;0.93;100.00;100520.84;4152083;28;20037;-78
2023/01/19 08:03:59;;;;;;;5.72;3.85;;;2.10;99.90;;;0.98;100.00;100526.59;4150833;28;20102;-77
2023/01/19 08:06:01;;;;;;;6.18;3.60;;;2.10;99.90;;;0.95;100.00;100517.22;4159006;28;20021;-77
2023/01/19 08:08:04;;;;;;;9.68;4.40;;;2.10;99.90;;;1.00;100.00;100507.38;4150329;28;20025;-76
2023/01/19 08:10:06;;;;;;;5.10;3.60;;;2.20;99.90;;;1.04;100.00;100514.03;4150926;28;20501;-76
2023/01/19 08:12:06;;;;;;;6.97;3.97;;;2.10;99.90;;;1.01;100.00;100501.25;4151563;28;20045;-76
2023/01/19 08:14:08;;;;;;;7.72;3.30;;;2.10;99.90;;;1.05;100.00;100505.28;4150602;28;20034;-76
2023/01/19 08:16:09;;;;;;;7.93;3.50;;;2.20;99.90;;;1.07;100.00;100508.63;4151447;28;20105;-76
2023/01/19 08:18:10;;;;;;;7.55;3.45;;;2.20;99.90;;;1.08;100.00;100499.88;4147255;28;20087;-77
2023/01/19 08:20:12;;;;;;;6.65;3.30;;;2.20;99.90;;;1.08;100.00;100489.50;4150205;28;20025;-77
2023/01/19 08:22:13;;;;;;;6.35;3.30;;;2.20;99.90;;;1.16;100.00;100495.97;4149685;28;20529;-78
2023/01/19 08:24:27;;;;;;;11.13;5.53;;;2.30;99.90;;;1.21;100.00;100493.88;4136768;28;20029;-78
2023/01/19 08:26:33;;;;;;;7.97;5.20;;;2.30;99.90;;;1.26;100.00;100484.00;4164298;28;20409;-78
2023/01/19 08:28:35;;;;;;;8.70;5.22;;;2.40;99.90;;;1.36;100.00;100492.84;4155028;28;20053;-78
2023/01/19 08:30:36;;;;;;;9.30;4.57;;;2.40;99.90;;;1.37;100.00;100478.94;4151512;28;20039;-78
2023/01/19 08:32:37;;;;;;;7.00;4.25;;;2.50;99.90;;;1.42;100.00;100482.03;4153835;28;20061;-78
2023/01/19 08:34:38;;;;;;;10.27;5.63;;;2.50;99.90;;;1.46;100.00;100480.91;4155457;28;20060;-78
2023/01/19 08:36:39;;;;;;;10.88;5.85;;;2.50;99.90;;;1.51;100.00;100476.22;4160793;28;20036;-78
2023/01/19 08:38:42;;;;;;;10.70;6.78;;;2.60;99.90;;;1.55;100.00;100478.47;4156931;28;20026;-78
2023/01/19 08:40:43;;;;;;;13.47;6.47;;;2.60;99.90;;;1.60;100.00;100478.19;4155426;28;20084;-78
2023/01/19 08:42:44;;;;;;;12.65;6.45;;;2.70;99.90;;;1.66;100.00;100472.56;4155305;28;20109;-78
2023/01/19 08:44:45;;;;;;;14.27;7.10;;;2.70;99.90;;;1.70;100.00;100474.03;4154188;28;20054;-78
2023/01/19 08:46:46;;;;;;;11.98;7.25;;;2.80;99.90;;;1.74;100.00;100472.03;4161106;28;20455;-78
2023/01/19 08:48:47;;;;;;;11.52;7.20;;;2.80;99.90;;;1.78;100.00;100469.13;4153913;28;20064;-78